sensor_id;sensor_type;location;lat;lon;timestamp;pressure;altitude;pressure_sealevel;temperature
72405;BMP280;60395;52.020;113.548;2022-12-18T00:00:58;92691.94;;;-18.32
72405;BMP280;60395;52.020;113.548;2022-12-18T00:04:06;92702.72;;;-18.37
72405;BMP280;60395;52.020;113.548;2022-12-18T00:07:10;92699.94;;;-18.78
72405;BMP280;60395;52.020;113.548;2022-12-18T00:10:13;92698.16;;;-18.97
72405;BMP280;60395;52.020;113.548;2022-12-18T00:13:19;92698.84;;;-18.83
72405;BMP280;60395;52.020;113.548;2022-12-18T00:16:24;92698.09;;;-18.78
72405;BMP280;60395;52.020;113.548;2022-12-18T00:19:27;92698.75;;;-18.91
72405;BMP280;60395;52.020;113.548;2022-12-18T00:22:30;92707.78;;;-19.01
72405;BMP280;60395;52.020;113.548;2022-12-18T00:25:35;92700.44;;;-19.12
72405;BMP280;60395;52.020;113.548;2022-12-18T00:28:39;92693.31;;;-19.08
72405;BMP280;60395;52.020;113.548;2022-12-18T00:31:42;92696.94;;;-19.09
72405;BMP280;60395;52.020;113.548;2022-12-18T00:34:46;92689.44;;;-19.28
72405;BMP280;60395;52.020;113.548;2022-12-18T00:37:49;92697.09;;;-19.39
72405;BMP280;60395;52.020;113.548;2022-12-18T00:40:52;92692.03;;;-19.33
72405;BMP280;60395;52.020;113.548;2022-12-18T00:43:56;92693.06;;;-19.23
72405;BMP280;60395;52.020;113.548;2022-12-18T00:46:59;92695.88;;;-19.32
72405;BMP280;60395;52.020;113.548;2022-12-18T00:50:02;92690.88;;;-19.32
72405;BMP280;60395;52.020;113.548;2022-12-18T00:53:06;92691.44;;;-19.20
72405;BMP280;60395;52.020;113.548;2022-12-18T00:56:09;92695.91;;;-19.00
72405;BMP280;60395;52.020;113.548;2022-12-18T00:59:12;92695.34;;;-18.74
72405;BMP280;60395;52.020;113.548;2022-12-18T01:02:15;92690.66;;;-18.51
72405;BMP280;60395;52.020;113.548;2022-12-18T01:05:18;92689.63;;;-18.43
72405;BMP280;60395;52.020;113.548;2022-12-18T01:08:22;92687.81;;;-18.74
72405;BMP280;60395;52.020;113.548;2022-12-18T01:11:25;92692.41;;;-18.92
72405;BMP280;60395;52.020;113.548;2022-12-18T01:14:28;92697.97;;;-18.99
72405;BMP280;60395;52.020;113.548;2022-12-18T01:17:32;92698.38;;;-19.13
72405;BMP280;60395;52.020;113.548;2022-12-18T01:20:35;92697.84;;;-19.25
72405;BMP280;60395;52.020;113.548;2022-12-18T01:23:40;92699.75;;;-19.31
72405;BMP280;60395;52.020;113.548;2022-12-18T01:26:43;92704.06;;;-19.32
72405;BMP280;60395;52.020;113.548;2022-12-18T01:29:49;92704.00;;;-19.07
72405;BMP280;60395;52.020;113.548;2022-12-18T01:32:53;92714.09;;;-18.81
72405;BMP280;60395;52.020;113.548;2022-12-18T01:35:57;92708.03;;;-18.72
72405;BMP280;60395;52.020;113.548;2022-12-18T01:39:03;92712.22;;;-18.62
72405;BMP280;60395;52.020;113.548;2022-12-18T01:42:14;92712.44;;;-18.46
72405;BMP280;60395;52.020;113.548;2022-12-18T01:48:21;92715.03;;;-18.39
72405;BMP280;60395;52.020;113.548;2022-12-18T01:51:25;92712.16;;;-18.43
72405;BMP280;60395;52.020;113.548;2022-12-18T01:54:29;92710.72;;;-18.38
72405;BMP280;60395;52.020;113.548;2022-12-18T01:57:33;92704.25;;;-18.47
72405;BMP280;60395;52.020;113.548;2022-12-18T02:00:36;92711.72;;;-18.60
72405;BMP280;60395;52.020;113.548;2022-12-18T02:03:43;92709.03;;;-18.49
72405;BMP280;60395;52.020;113.548;2022-12-18T02:17:07;92713.19;;;-17.59
72405;BMP280;60395;52.020;113.548;2022-12-18T02:27:05;92724.53;;;-16.97
72405;BMP280;60395;52.020;113.548;2022-12-18T02:30:10;92720.47;;;-16.80
72405;BMP280;60395;52.020;113.548;2022-12-18T02:33:14;92718.66;;;-16.79
72405;BMP280;60395;52.020;113.548;2022-12-18T02:36:18;92721.41;;;-16.69
72405;BMP280;60395;52.020;113.548;2022-12-18T02:39:25;92723.41;;;-16.68
72405;BMP280;60395;52.020;113.548;2022-12-18T02:42:35;92716.25;;;-16.64
72405;BMP280;60395;52.020;113.548;2022-12-18T02:45:55;92717.31;;;-16.52
72405;BMP280;60395;52.020;113.548;2022-12-18T02:59:19;92708.94;;;-15.90
72405;BMP280;60395;52.020;113.548;2022-12-18T03:02:44;92708.94;;;-15.90
72405;BMP280;60395;52.020;113.548;2022-12-18T03:06:02;92703.09;;;-15.85
72405;BMP280;60395;52.020;113.548;2022-12-18T03:09:10;92707.13;;;-15.82
72405;BMP280;60395;52.020;113.548;2022-12-18T03:15:50;92702.59;;;-15.91
72405;BMP280;60395;52.020;113.548;2022-12-18T03:19:01;92698.59;;;-15.86
72405;BMP280;60395;52.020;113.548;2022-12-18T03:22:07;92701.44;;;-15.82
72405;BMP280;60395;52.020;113.548;2022-12-18T03:25:23;92696.59;;;-15.73
72405;BMP280;60395;52.020;113.548;2022-12-18T03:28:30;92700.81;;;-15.75
72405;BMP280;60395;52.020;113.548;2022-12-18T03:31:40;92696.09;;;-15.71
72405;BMP280;60395;52.020;113.548;2022-12-18T03:34:46;92698.63;;;-15.71
72405;BMP280;60395;52.020;113.548;2022-12-18T03:37:55;92688.56;;;-15.71
72405;BMP280;60395;52.020;113.548;2022-12-18T03:41:27;92692.66;;;-15.53
72405;BMP280;60395;52.020;113.548;2022-12-18T03:44:59;92683.63;;;-15.48
72405;BMP280;60395;52.020;113.548;2022-12-18T03:48:15;92681.25;;;-15.46
72405;BMP280;60395;52.020;113.548;2022-12-18T03:51:42;92681.63;;;-15.42
72405;BMP280;60395;52.020;113.548;2022-12-18T03:54:47;92679.41;;;-15.38
72405;BMP280;60395;52.020;113.548;2022-12-18T03:57:52;92687.16;;;-15.36
72405;BMP280;60395;52.020;113.548;2022-12-18T04:01:01;92685.63;;;-15.39
72405;BMP280;60395;52.020;113.548;2022-12-18T04:04:06;92677.41;;;-15.32
72405;BMP280;60395;52.020;113.548;2022-12-18T04:07:16;92676.59;;;-15.27
72405;BMP280;60395;52.020;113.548;2022-12-18T04:10:20;92676.41;;;-15.29
72405;BMP280;60395;52.020;113.548;2022-12-18T04:13:27;92679.09;;;-15.27
72405;BMP280;60395;52.020;113.548;2022-12-18T04:16:33;92671.53;;;-15.27
72405;BMP280;60395;52.020;113.548;2022-12-18T04:19:39;92667.88;;;-15.26
72405;BMP280;60395;52.020;113.548;2022-12-18T04:22:43;92676.25;;;-15.23
72405;BMP280;60395;52.020;113.548;2022-12-18T04:25:47;92671.88;;;-15.23
72405;BMP280;60395;52.020;113.548;2022-12-18T04:29:01;92678.75;;;-15.23
72405;BMP280;60395;52.020;113.548;2022-12-18T04:32:05;92667.88;;;-15.26
72405;BMP280;60395;52.020;113.548;2022-12-18T04:35:08;92667.00;;;-15.28
72405;BMP280;60395;52.020;113.548;2022-12-18T04:38:16;92664.00;;;-15.27
72405;BMP280;60395;52.020;113.548;2022-12-18T04:41:23;92651.06;;;-15.23
72405;BMP280;60395;52.020;113.548;2022-12-18T04:44:28;92651.59;;;-15.25
72405;BMP280;60395;52.020;113.548;2022-12-18T04:47:31;92651.56;;;-15.17
72405;BMP280;60395;52.020;113.548;2022-12-18T04:50:34;92640.84;;;-15.18
72405;BMP280;60395;52.020;113.548;2022-12-18T04:53:37;92640.03;;;-15.20
72405;BMP280;60395;52.020;113.548;2022-12-18T04:56:41;92637.97;;;-15.22
72405;BMP280;60395;52.020;113.548;2022-12-18T04:59:44;92629.94;;;-15.20
72405;BMP280;60395;52.020;113.548;2022-12-18T05:02:47;92625.22;;;-15.01
72405;BMP280;60395;52.020;113.548;2022-12-18T05:05:51;92622.72;;;-14.86
72405;BMP280;60395;52.020;113.548;2022-12-18T05:08:54;92623.88;;;-14.87
72405;BMP280;60395;52.020;113.548;2022-12-18T05:11:57;92625.56;;;-14.89
72405;BMP280;60395;52.020;113.548;2022-12-18T05:15:00;92626.88;;;-14.88
72405;BMP280;60395;52.020;113.548;2022-12-18T05:18:04;92623.38;;;-14.85
72405;BMP280;60395;52.020;113.548;2022-12-18T05:21:07;92629.91;;;-14.82
72405;BMP280;60395;52.020;113.548;2022-12-18T05:24:10;92627.91;;;-14.84
72405;BMP280;60395;52.020;113.548;2022-12-18T05:27:14;92621.66;;;-14.75
72405;BMP280;60395;52.020;113.548;2022-12-18T05:30:17;92623.34;;;-14.78
72405;BMP280;60395;52.020;113.548;2022-12-18T05:33:21;92622.69;;;-14.78
72405;BMP280;60395;52.020;113.548;2022-12-18T05:36:25;92618.97;;;-14.77
72405;BMP280;60395;52.020;113.548;2022-12-18T05:39:28;92621.34;;;-14.79
72405;BMP280;60395;52.020;113.548;2022-12-18T05:42:31;92623.34;;;-14.78
72405;BMP280;60395;52.020;113.548;2022-12-18T05:45:37;92628.72;;;-14.73
72405;BMP280;60395;52.020;113.548;2022-12-18T05:48:42;92620.13;;;-14.63
72405;BMP280;60395;52.020;113.548;2022-12-18T05:51:45;92629.84;;;-14.52
72405;BMP280;60395;52.020;113.548;2022-12-18T05:54:48;92631.00;;;-14.45
72405;BMP280;60395;52.020;113.548;2022-12-18T05:57:51;92622.97;;;-14.44
72405;BMP280;60395;52.020;113.548;2022-12-18T06:00:54;92613.03;;;-14.41
72405;BMP280;60395;52.020;113.548;2022-12-18T06:03:57;92616.06;;;-14.43
72405;BMP280;60395;52.020;113.548;2022-12-18T06:07:01;92619.25;;;-14.43
72405;BMP280;60395;52.020;113.548;2022-12-18T06:10:05;92620.59;;;-14.41
72405;BMP280;60395;52.020;113.548;2022-12-18T06:13:08;92614.88;;;-14.42
72405;BMP280;60395;52.020;113.548;2022-12-18T06:16:12;92619.59;;;-14.38
72405;BMP280;60395;52.020;113.548;2022-12-18T06:19:16;92620.94;;;-14.37
72405;BMP280;60395;52.020;113.548;2022-12-18T06:22:19;92627.81;;;-14.38
72405;BMP280;60395;52.020;113.548;2022-12-18T06:25:22;92631.00;;;-14.37
72405;BMP280;60395;52.020;113.548;2022-12-18T06:28:25;92623.44;;;-14.37
72405;BMP280;60395;52.020;113.548;2022-12-18T06:31:28;92615.69;;;-14.39
72405;BMP280;60395;52.020;113.548;2022-12-18T06:34:32;92623.94;;;-14.39
72405;BMP280;60395;52.020;113.548;2022-12-18T06:37:35;92630.34;;;-14.38
72405;BMP280;60395;52.020;113.548;2022-12-18T06:40:38;92631.31;;;-14.33
72405;BMP280;60395;52.020;113.548;2022-12-18T06:43:42;92628.94;;;-14.24
72405;BMP280;60395;52.020;113.548;2022-12-18T06:46:45;92633.66;;;-14.20
72405;BMP280;60395;52.020;113.548;2022-12-18T06:49:49;92637.31;;;-14.21
72405;BMP280;60395;52.020;113.548;2022-12-18T06:52:52;92623.38;;;-14.22
72405;BMP280;60395;52.020;113.548;2022-12-18T06:56:02;92627.56;;;-14.17
72405;BMP280;60395;52.020;113.548;2022-12-18T06:59:13;92629.72;;;-14.06
72405;BMP280;60395;52.020;113.548;2022-12-18T07:02:17;92633.94;;;-14.08
72405;BMP280;60395;52.020;113.548;2022-12-18T07:05:20;92617.63;;;-14.15
72405;BMP280;60395;52.020;113.548;2022-12-18T07:08:24;92623.06;;;-14.26
72405;BMP280;60395;52.020;113.548;2022-12-18T07:11:27;92623.59;;;-14.35
72405;BMP280;60395;52.020;113.548;2022-12-18T07:14:30;92622.09;;;-14.46
72405;BMP280;60395;52.020;113.548;2022-12-18T07:17:33;92627.50;;;-14.57
72405;BMP280;60395;52.020;113.548;2022-12-18T07:20:36;92637.97;;;-14.68
72405;BMP280;60395;52.020;113.548;2022-12-18T07:23:39;92634.28;;;-14.75
72405;BMP280;60395;52.020;113.548;2022-12-18T07:26:46;92640.50;;;-14.84
72405;BMP280;60395;52.020;113.548;2022-12-18T07:29:49;92641.84;;;-14.90
72405;BMP280;60395;52.020;113.548;2022-12-18T07:32:52;92645.19;;;-14.95
72405;BMP280;60395;52.020;113.548;2022-12-18T07:35:55;92652.94;;;-15.01
72405;BMP280;60395;52.020;113.548;2022-12-18T07:38:58;92646.22;;;-15.06
72405;BMP280;60395;52.020;113.548;2022-12-18T07:42:02;92652.44;;;-15.15
72405;BMP280;60395;52.020;113.548;2022-12-18T07:45:24;92639.69;;;-15.24
72405;BMP280;60395;52.020;113.548;2022-12-18T07:48:28;92643.84;;;-15.34
72405;BMP280;60395;52.020;113.548;2022-12-18T07:51:31;92652.25;;;-15.47
72405;BMP280;60395;52.020;113.548;2022-12-18T07:54:34;92656.56;;;-15.63
72405;BMP280;60395;52.020;113.548;2022-12-18T07:57:38;92656.50;;;-15.86
72405;BMP280;60395;52.020;113.548;2022-12-18T08:01:09;92657.25;;;-16.06
72405;BMP280;60395;52.020;113.548;2022-12-18T08:04:13;92664.44;;;-16.10
72405;BMP280;60395;52.020;113.548;2022-12-18T08:07:17;92660.88;;;-16.22
72405;BMP280;60395;52.020;113.548;2022-12-18T08:10:20;92662.66;;;-16.30
72405;BMP280;60395;52.020;113.548;2022-12-18T08:13:24;92667.47;;;-16.40
72405;BMP280;60395;52.020;113.548;2022-12-18T08:16:27;92662.31;;;-16.63
72405;BMP280;60395;52.020;113.548;2022-12-18T08:19:30;92667.91;;;-16.98
72405;BMP280;60395;52.020;113.548;2022-12-18T08:22:37;92662.97;;;-17.32
72405;BMP280;60395;52.020;113.548;2022-12-18T08:25:41;92663.16;;;-17.44
72405;BMP280;60395;52.020;113.548;2022-12-18T08:28:45;92668.19;;;-17.44
72405;BMP280;60395;52.020;113.548;2022-12-18T08:31:49;92673.09;;;-17.38
72405;BMP280;60395;52.020;113.548;2022-12-18T08:54:53;92693.22;;;-17.51
72405;BMP280;60395;52.020;113.548;2022-12-18T08:59:27;92690.88;;;-17.49
72405;BMP280;60395;52.020;113.548;2022-12-18T09:04:16;92693.94;;;-17.43
72405;BMP280;60395;52.020;113.548;2022-12-18T09:19:31;92695.31;;;-18.03
72405;BMP280;60395;52.020;113.548;2022-12-18T09:22:45;92688.94;;;-18.04
72405;BMP280;60395;52.020;113.548;2022-12-18T09:25:48;92694.25;;;-17.94
72405;BMP280;60395;52.020;113.548;2022-12-18T09:28:52;92689.50;;;-17.98
72405;BMP280;60395;52.020;113.548;2022-12-18T09:31:55;92695.69;;;-17.99
72405;BMP280;60395;52.020;113.548;2022-12-18T09:34:59;92695.88;;;-17.97
72405;BMP280;60395;52.020;113.548;2022-12-18T09:38:02;92700.31;;;-17.89
72405;BMP280;60395;52.020;113.548;2022-12-18T09:44:34;92692.97;;;-17.87
72405;BMP280;60395;52.020;113.548;2022-12-18T09:47:47;92690.19;;;-17.97
72405;BMP280;60395;52.020;113.548;2022-12-18T09:50:57;92687.69;;;-18.10
72405;BMP280;60395;52.020;113.548;2022-12-18T09:54:10;92704.28;;;-18.07
72405;BMP280;60395;52.020;113.548;2022-12-18T09:57:17;92707.75;;;-17.97
72405;BMP280;60395;52.020;113.548;2022-12-18T10:00:23;92710.06;;;-17.86
72405;BMP280;60395;52.020;113.548;2022-12-18T10:03:27;92708.59;;;-17.81
72405;BMP280;60395;52.020;113.548;2022-12-18T10:10:10;92705.91;;;-17.97
72405;BMP280;60395;52.020;113.548;2022-12-18T10:19:43;92701.94;;;-18.32
72405;BMP280;60395;52.020;113.548;2022-12-18T10:26:06;92700.72;;;-18.25
72405;BMP280;60395;52.020;113.548;2022-12-18T10:29:13;92701.41;;;-18.24
72405;BMP280;60395;52.020;113.548;2022-12-18T10:32:25;92706.41;;;-18.24
72405;BMP280;60395;52.020;113.548;2022-12-18T10:35:28;92703.31;;;-18.17
72405;BMP280;60395;52.020;113.548;2022-12-18T10:38:32;92709.59;;;-18.24
72405;BMP280;60395;52.020;113.548;2022-12-18T10:41:35;92714.84;;;-18.27
72405;BMP280;60395;52.020;113.548;2022-12-18T10:44:38;92707.34;;;-18.27
72405;BMP280;60395;52.020;113.548;2022-12-18T10:47:43;92706.19;;;-18.26
72405;BMP280;60395;52.020;113.548;2022-12-18T10:50:49;92716.13;;;-18.21
72405;BMP280;60395;52.020;113.548;2022-12-18T10:54:21;92714.09;;;-18.09
72405;BMP280;60395;52.020;113.548;2022-12-18T10:57:34;92712.06;;;-17.98
72405;BMP280;60395;52.020;113.548;2022-12-18T11:00:38;92711.63;;;-17.96
72405;BMP280;60395;52.020;113.548;2022-12-18T11:03:46;92720.06;;;-17.99
72405;BMP280;60395;52.020;113.548;2022-12-18T11:07:05;92707.75;;;-18.10
72405;BMP280;60395;52.020;113.548;2022-12-18T11:10:18;92709.38;;;-18.26
72405;BMP280;60395;52.020;113.548;2022-12-18T11:13:24;92707.25;;;-18.35
72405;BMP280;60395;52.020;113.548;2022-12-18T11:16:34;92704.59;;;-18.56
72405;BMP280;60395;52.020;113.548;2022-12-18T11:19:40;92703.78;;;-18.77
72405;BMP280;60395;52.020;113.548;2022-12-18T11:22:55;92714.84;;;-18.86
72405;BMP280;60395;52.020;113.548;2022-12-18T11:26:01;92701.88;;;-18.84
72405;BMP280;60395;52.020;113.548;2022-12-18T11:29:15;92710.84;;;-18.76
72405;BMP280;60395;52.020;113.548;2022-12-18T11:32:30;92701.50;;;-18.75
72405;BMP280;60395;52.020;113.548;2022-12-18T11:38:42;92696.28;;;-18.77
72405;BMP280;60395;52.020;113.548;2022-12-18T11:42:14;92702.69;;;-18.95
72405;BMP280;60395;52.020;113.548;2022-12-18T11:45:34;92701.13;;;-18.98
72405;BMP280;60395;52.020;113.548;2022-12-18T11:58:47;92711.63;;;-19.18
72405;BMP280;60395;52.020;113.548;2022-12-18T12:01:55;92700.69;;;-19.15
72405;BMP280;60395;52.020;113.548;2022-12-18T12:05:38;92706.06;;;-18.93
72405;BMP280;60395;52.020;113.548;2022-12-18T12:08:57;92702.53;;;-18.84
72405;BMP280;60395;52.020;113.548;2022-12-18T12:12:30;92707.94;;;-18.80
72405;BMP280;60395;52.020;113.548;2022-12-18T12:25:53;92689.22;;;-18.92
72405;BMP280;60395;52.020;113.548;2022-12-18T12:29:01;92691.75;;;-19.11
72405;BMP280;60395;52.020;113.548;2022-12-18T12:32:35;92690.66;;;-19.15
72405;BMP280;60395;52.020;113.548;2022-12-18T12:39:11;92687.19;;;-19.26
72405;BMP280;60395;52.020;113.548;2022-12-18T12:42:25;92688.13;;;-19.29
72405;BMP280;60395;52.020;113.548;2022-12-18T12:46:03;92690.44;;;-19.31
72405;BMP280;60395;52.020;113.548;2022-12-18T12:49:22;92690.28;;;-19.38
72405;BMP280;60395;52.020;113.548;2022-12-18T12:55:32;92682.72;;;-19.33
72405;BMP280;60395;52.020;113.548;2022-12-18T13:03:24;92683.84;;;-19.71
72405;BMP280;60395;52.020;113.548;2022-12-18T13:06:40;92683.44;;;-19.75
72405;BMP280;60395;52.020;113.548;2022-12-18T13:13:23;92679.41;;;-19.60
72405;BMP280;60395;52.020;113.548;2022-12-18T13:16:26;92677.59;;;-19.59
72405;BMP280;60395;52.020;113.548;2022-12-18T13:19:31;92670.44;;;-19.68
72405;BMP280;60395;52.020;113.548;2022-12-18T13:25:39;92655.44;;;-19.68
72405;BMP280;60395;52.020;113.548;2022-12-18T13:38:37;92647.28;;;-19.93
72405;BMP280;60395;52.020;113.548;2022-12-18T13:41:42;92655.00;;;-19.72
72405;BMP280;60395;52.020;113.548;2022-12-18T13:44:46;92652.59;;;-19.78
72405;BMP280;60395;52.020;113.548;2022-12-18T13:47:49;92647.84;;;-19.81
72405;BMP280;60395;52.020;113.548;2022-12-18T13:51:13;92636.25;;;-19.79
72405;BMP280;60395;52.020;113.548;2022-12-18T13:54:39;92640.44;;;-19.68
72405;BMP280;60395;52.020;113.548;2022-12-18T13:57:43;92644.94;;;-19.48
72405;BMP280;60395;52.020;113.548;2022-12-18T14:00:48;92644.25;;;-19.30
72405;BMP280;60395;52.020;113.548;2022-12-18T14:04:09;92641.84;;;-19.35
72405;BMP280;60395;52.020;113.548;2022-12-18T14:07:22;92642.59;;;-19.59
72405;BMP280;60395;52.020;113.548;2022-12-18T14:10:26;92632.66;;;-19.65
72405;BMP280;60395;52.020;113.548;2022-12-18T14:13:49;92635.97;;;-19.57
72405;BMP280;60395;52.020;113.548;2022-12-18T14:16:53;92628.41;;;-19.51
72405;BMP280;60395;52.020;113.548;2022-12-18T14:19:57;92624.47;;;-19.46
72405;BMP280;60395;52.020;113.548;2022-12-18T14:23:00;92612.59;;;-19.59
72405;BMP280;60395;52.020;113.548;2022-12-18T14:26:29;92630.31;;;-19.57
72405;BMP280;60395;52.020;113.548;2022-12-18T14:29:34;92627.16;;;-19.26
72405;BMP280;60395;52.020;113.548;2022-12-18T14:32:37;92622.31;;;-18.92
72405;BMP280;60395;52.020;113.548;2022-12-18T14:35:53;92626.09;;;-18.72
72405;BMP280;60395;52.020;113.548;2022-12-18T14:38:58;92629.66;;;-18.80
72405;BMP280;60395;52.020;113.548;2022-12-18T14:42:01;92622.63;;;-18.82
72405;BMP280;60395;52.020;113.548;2022-12-18T14:45:33;92624.75;;;-18.60
72405;BMP280;60395;52.020;113.548;2022-12-18T14:48:47;92628.13;;;-18.31
72405;BMP280;60395;52.020;113.548;2022-12-18T14:52:02;92621.94;;;-18.03
72405;BMP280;60395;52.020;113.548;2022-12-18T14:55:15;92628.69;;;-17.85
72405;BMP280;60395;52.020;113.548;2022-12-18T14:58:18;92626.72;;;-17.79
72405;BMP280;60395;52.020;113.548;2022-12-18T15:01:25;92625.88;;;-17.81
72405;BMP280;60395;52.020;113.548;2022-12-18T15:04:37;92620.53;;;-17.78
72405;BMP280;60395;52.020;113.548;2022-12-18T15:07:56;92628.16;;;-17.70
72405;BMP280;60395;52.020;113.548;2022-12-18T15:11:00;92628.03;;;-17.64
72405;BMP280;60395;52.020;113.548;2022-12-18T15:14:42;92626.38;;;-17.62
72405;BMP280;60395;52.020;113.548;2022-12-18T15:17:45;92622.53;;;-17.63
72405;BMP280;60395;52.020;113.548;2022-12-18T15:21:08;92619.69;;;-17.80
72405;BMP280;60395;52.020;113.548;2022-12-18T15:24:22;92617.81;;;-18.14
72405;BMP280;60395;52.020;113.548;2022-12-18T15:27:33;92606.00;;;-18.40
72405;BMP280;60395;52.020;113.548;2022-12-18T15:30:38;92607.41;;;-18.31
72405;BMP280;60395;52.020;113.548;2022-12-18T15:33:43;92606.81;;;-18.11
72405;BMP280;60395;52.020;113.548;2022-12-18T15:36:51;92608.44;;;-18.00
72405;BMP280;60395;52.020;113.548;2022-12-18T15:39:55;92593.19;;;-17.89
72405;BMP280;60395;52.020;113.548;2022-12-18T15:42:58;92602.69;;;-17.74
72405;BMP280;60395;52.020;113.548;2022-12-18T15:46:23;92599.28;;;-17.63
72405;BMP280;60395;52.020;113.548;2022-12-18T15:49:27;92596.66;;;-17.58
72405;BMP280;60395;52.020;113.548;2022-12-18T15:52:45;92601.66;;;-17.58
72405;BMP280;60395;52.020;113.548;2022-12-18T15:55:48;92599.09;;;-17.66
72405;BMP280;60395;52.020;113.548;2022-12-18T15:59:13;92601.13;;;-17.77
72405;BMP280;60395;52.020;113.548;2022-12-18T16:02:18;92596.34;;;-17.88
72405;BMP280;60395;52.020;113.548;2022-12-18T16:05:23;92589.75;;;-17.99
72405;BMP280;60395;52.020;113.548;2022-12-18T16:08:27;92599.22;;;-18.45
72405;BMP280;60395;52.020;113.548;2022-12-18T16:11:32;92587.50;;;-18.76
72405;BMP280;60395;52.020;113.548;2022-12-18T16:14:45;92590.25;;;-18.93
72405;BMP280;60395;52.020;113.548;2022-12-18T16:17:48;92593.81;;;-19.02
72405;BMP280;60395;52.020;113.548;2022-12-18T16:20:51;92589.59;;;-19.07
72405;BMP280;60395;52.020;113.548;2022-12-18T16:23:55;92584.81;;;-19.24
72405;BMP280;60395;52.020;113.548;2022-12-18T16:27:00;92588.94;;;-19.77
72405;BMP280;60395;52.020;113.548;2022-12-18T16:30:03;92579.69;;;-20.20
72405;BMP280;60395;52.020;113.548;2022-12-18T16:33:09;92571.78;;;-20.24
72405;BMP280;60395;52.020;113.548;2022-12-18T16:36:13;92582.19;;;-20.44
72405;BMP280;60395;52.020;113.548;2022-12-18T16:39:16;92567.41;;;-20.61
72405;BMP280;60395;52.020;113.548;2022-12-18T16:42:19;92574.06;;;-20.45
72405;BMP280;60395;52.020;113.548;2022-12-18T16:45:23;92577.25;;;-20.25
72405;BMP280;60395;52.020;113.548;2022-12-18T16:48:26;92567.53;;;-20.10
72405;BMP280;60395;52.020;113.548;2022-12-18T16:51:34;92566.50;;;-19.96
72405;BMP280;60395;52.020;113.548;2022-12-18T16:54:37;92572.47;;;-19.86
72405;BMP280;60395;52.020;113.548;2022-12-18T16:57:40;92569.03;;;-19.83
72405;BMP280;60395;52.020;113.548;2022-12-18T17:00:44;92574.72;;;-19.82
72405;BMP280;60395;52.020;113.548;2022-12-18T17:04:01;92567.47;;;-19.86
72405;BMP280;60395;52.020;113.548;2022-12-18T17:07:05;92567.97;;;-19.87
72405;BMP280;60395;52.020;113.548;2022-12-18T17:10:08;92572.84;;;-19.95
72405;BMP280;60395;52.020;113.548;2022-12-18T17:13:11;92574.78;;;-20.06
72405;BMP280;60395;52.020;113.548;2022-12-18T17:16:15;92573.44;;;-20.07
72405;BMP280;60395;52.020;113.548;2022-12-18T17:19:19;92569.69;;;-20.20
72405;BMP280;60395;52.020;113.548;2022-12-18T17:22:23;92565.53;;;-20.55
72405;BMP280;60395;52.020;113.548;2022-12-18T17:25:26;92567.47;;;-20.66
72405;BMP280;60395;52.020;113.548;2022-12-18T17:28:29;92567.84;;;-20.57
72405;BMP280;60395;52.020;113.548;2022-12-18T17:31:33;92565.81;;;-20.58
72405;BMP280;60395;52.020;113.548;2022-12-18T17:34:37;92564.94;;;-20.85
72405;BMP280;60395;52.020;113.548;2022-12-18T17:37:40;92563.16;;;-21.20
72405;BMP280;60395;52.020;113.548;2022-12-18T17:40:43;92565.41;;;-21.47
72405;BMP280;60395;52.020;113.548;2022-12-18T17:43:59;92557.09;;;-21.60
72405;BMP280;60395;52.020;113.548;2022-12-18T17:47:02;92557.84;;;-21.71
72405;BMP280;60395;52.020;113.548;2022-12-18T17:50:05;92555.19;;;-21.84
72405;BMP280;60395;52.020;113.548;2022-12-18T17:53:08;92560.28;;;-21.66
72405;BMP280;60395;52.020;113.548;2022-12-18T17:56:13;92562.59;;;-21.38
72405;BMP280;60395;52.020;113.548;2022-12-18T17:59:16;92559.03;;;-21.12
72405;BMP280;60395;52.020;113.548;2022-12-18T18:02:19;92554.78;;;-20.93
72405;BMP280;60395;52.020;113.548;2022-12-18T18:05:24;92549.91;;;-20.80
72405;BMP280;60395;52.020;113.548;2022-12-18T18:08:27;92555.72;;;-20.71
72405;BMP280;60395;52.020;113.548;2022-12-18T18:11:31;92564.38;;;-20.72
72405;BMP280;60395;52.020;113.548;2022-12-18T18:14:54;92566.31;;;-20.65
72405;BMP280;60395;52.020;113.548;2022-12-18T18:17:59;92568.53;;;-20.56
72405;BMP280;60395;52.020;113.548;2022-12-18T18:21:04;92567.78;;;-20.51
72405;BMP280;60395;52.020;113.548;2022-12-18T18:24:10;92567.47;;;-20.42
72405;BMP280;60395;52.020;113.548;2022-12-18T18:27:14;92570.28;;;-20.76
72405;BMP280;60395;52.020;113.548;2022-12-18T18:30:17;92566.72;;;-21.10
72405;BMP280;60395;52.020;113.548;2022-12-18T18:33:21;92563.09;;;-21.09
72405;BMP280;60395;52.020;113.548;2022-12-18T18:36:24;92554.88;;;-21.04
72405;BMP280;60395;52.020;113.548;2022-12-18T18:39:28;92557.38;;;-21.04
72405;BMP280;60395;52.020;113.548;2022-12-18T18:42:31;92560.91;;;-20.94
72405;BMP280;60395;52.020;113.548;2022-12-18T18:45:34;92565.19;;;-20.89
72405;BMP280;60395;52.020;113.548;2022-12-18T18:48:37;92554.00;;;-20.82
72405;BMP280;60395;52.020;113.548;2022-12-18T18:51:44;92546.69;;;-20.75
72405;BMP280;60395;52.020;113.548;2022-12-18T18:54:47;92545.16;;;-20.78
72405;BMP280;60395;52.020;113.548;2022-12-18T18:58:10;92544.34;;;-20.91
72405;BMP280;60395;52.020;113.548;2022-12-18T19:01:16;92538.31;;;-21.01
72405;BMP280;60395;52.020;113.548;2022-12-18T19:04:19;92535.22;;;-20.83
72405;BMP280;60395;52.020;113.548;2022-12-18T19:07:22;92532.47;;;-20.61
72405;BMP280;60395;52.020;113.548;2022-12-18T19:10:32;92533.94;;;-20.47
72405;BMP280;60395;52.020;113.548;2022-12-18T19:13:35;92537.22;;;-20.38
72405;BMP280;60395;52.020;113.548;2022-12-18T19:16:39;92533.25;;;-20.28
72405;BMP280;60395;52.020;113.548;2022-12-18T19:19:42;92535.88;;;-20.21
72405;BMP280;60395;52.020;113.548;2022-12-18T19:22:45;92536.84;;;-20.05
72405;BMP280;60395;52.020;113.548;2022-12-18T19:26:00;92528.44;;;-19.89
72405;BMP280;60395;52.020;113.548;2022-12-18T19:29:23;92526.28;;;-19.98